CheckWX is a tool to help pilots better visualize weather data.  It is not intended as a substitute for an official pre-flight weather briefing.

20:11:07 UTC

KSLC METAR
Salt Lake City International Airport
Salt Lake City, Utah, USA
Current

17 mins ago

KSLC 261954Z 18017G25KT 10SM SCT120 24/M03 A2971 RMK AO2 SLP019 VIRGA VC W TCU DSNT N T02391033 VISNO NW RNWY
Observed
May-26 @ 19:54 UTC
Wind
  • 180° at 17 KTS
  • Gusting to 25 KTS
Visibility
10 SM
Flight Rules
VFR
Cloud Levels
  • Scattered at 12,000' AGL
Temperature
24°C / 75°F
Dewpoint
-3°C / 27°F
Humidity
16%
Altimeter
29.71" Hg
Pressure
1006.12 hPa
Previous

1 hour ago

KSLC 261854Z 18015KT 10SM FEW120 FEW230 23/M03 A2974 RMK AO2 SLP029 TCU DSNT NW-N T02281033 VISNO NW RNWY
Observed
May-26 @ 18:54 UTC
Wind
  • 180° at 15 KTS
Visibility
10 SM
Flight Rules
VFR
Cloud Levels
  • Few at 12,000' AGL
  • Few at 23,000' AGL
Temperature
23°C / 73°F
Dewpoint
-3°C / 27°F
Humidity
17%
Altimeter
29.74" Hg
Pressure
1007.12 hPa
Previous

2 hours ago

KSLC 261754Z 16016G21KT 10SM FEW120 SCT230 22/00 A2975 RMK AO2 SLP037 TCU DSNT NE AND SE AND SW AND NW T02170000 10217 20089 58012 VISNO NW RNWY
Observed
May-26 @ 17:54 UTC
Wind
  • 160° at 16 KTS
  • Gusting to 21 KTS
Visibility
10 SM
Flight Rules
VFR
Cloud Levels
  • Few at 12,000' AGL
  • Scattered at 23,000' AGL
Temperature
22°C / 72°F
Dewpoint
C / 32°F
Humidity
23%
Altimeter
29.75" Hg
Pressure
1007.42 hPa